Terminal Aerodrome Forecast
Issued by NWS

Current Version | Previous Version | Text Only | Print | Product List | Glossary On
Versions: 1 2 3 4 5 6 7 8 9 10 11 12 13 14 15 16
925
FTUS41 KPHI 250531
TAFPNE
TAF
KPNE 250531Z 2506/2606 VRB02KT P6SM SKC
     FM251500 22005KT P6SM SCT200
     FM252000 26006KT P6SM BKN080
     FM252300 28007KT P6SM BKN050=

USA.gov is the U.S. government's official web portal to all federal, state and local government web resources and services.